• Join FlightAware (Why Join?)
  • Login
  • US Flag 
10:52AM EDT


 

Airport Tracker/Info


-or-


 

Live Flight TrackerFlight Track Log ✈ CTL16 ✈ 15-Apr-2013 ✈ KHAO - KBKL

Flight Track Log - Related Links

Times and Time Zones

All times are in EDT time to prevent confusion due to time zone crossing. See the CTL16 flight status page for this flight to view local times or setup timezone preferences in your user account.

Time Position Orientation Groundspeed Altitude Reporting Facility
EDT Latitude Longitude Course Direction KTS MPH feet Rate Location/Type
08:45PM 39.4000 -84.4667 58° Northeast 167 192 1,600  Level Cincinnati TRACON
08:46PM 39.4158 -84.4344 58° Northeast 169 194 2,000 660 Climbing Indianapolis Center
08:46PM 39.4278 -84.4172 48° Northeast 170 196 2,300 660 Climbing Indianapolis Center
08:47PM 39.4375 -84.4008 52° Northeast 157 181 2,600 660 Climbing Indianapolis Center
08:47PM 39.4567 -84.3697 51° Northeast 172 198 3,000 540 Climbing Indianapolis Center
08:48PM 39.4700 -84.3525 45° Northeast 174 200 3,200 480 Climbing Indianapolis Center
08:49PM 39.5042 -84.3069 46° Northeast 174 200 3,800 540 Climbing Indianapolis Center
08:49PM 39.5269 -84.2789 44° Northeast 179 206 4,100 480 Climbing Indianapolis Center
08:50PM 39.5467 -84.2506 48° Northeast 180 207 4,300 360 Climbing Indianapolis Center
08:50PM 39.5622 -84.2294 46° Northeast 187 215 4,500 480 Climbing Indianapolis Center
08:51PM 39.5842 -84.2022 44° Northeast 185 213 4,800 600 Climbing Indianapolis Center
08:51PM 39.6042 -84.1756 46° Northeast 189 217 5,200 660 Climbing Indianapolis Center
08:52PM 39.6206 -84.1550 44° Northeast 185 213 5,500 600 Climbing Indianapolis Center
08:52PM 39.6417 -84.1261 46° Northeast 173 199 5,900 480 Climbing Indianapolis Center
08:53PM 39.6547 -84.1114 41° Northeast 178 205 6,000 480 Climbing Indianapolis Center
08:54PM 39.6814 -84.0744 47° Northeast 175 201 6,500 540 Climbing Indianapolis Center
08:54PM 39.6892 -84.0661 40° Northeast 175 201 6,600 360 Climbing Indianapolis Center
08:55PM 39.7161 -84.0300 46° Northeast 172 198 6,900 360 Climbing Indianapolis Center
08:55PM 39.7236 -84.0225 38° Northeast 173 199 7,000 60 Climbing Indianapolis Center
08:56PM 39.7511 -83.9858 46° Northeast 183 211 7,000  Level Indianapolis Center
08:56PM 39.7600 -83.9758 41° Northeast 176 203 7,000  Level Indianapolis Center
08:57PM 39.7950 -83.9317 44° Northeast 191 220 7,000  Level Indianapolis Center
08:58PM 39.8322 -83.8822 46° Northeast 191 220 7,000  Level Indianapolis Center
08:59PM 39.8672 -83.8378 44° Northeast 192 221 7,000 -120 Level Indianapolis Center
08:59PM 39.8753 -83.8264 47° Northeast 192 221 6,900  Descending Indianapolis Center
09:00PM 39.9089 -83.7831 45° Northeast 193 222 7,000  Climbing Indianapolis Center
09:01PM 39.9511 -83.7261 46° Northeast 192 221 7,000 -60 Level Indianapolis Center
09:02PM 39.9833 -83.6836 45° Northeast 188 216 6,900 -120 Descending Indianapolis Center
09:02PM 39.9892 -83.6775 39° Northeast 190 219 6,900  Level Indianapolis Center
09:02PM 40.0042 -83.6564 47° Northeast 190 219 6,900  Level Indianapolis Center
09:03PM 40.0267 -83.6283 44° Northeast 189 217 6,900  Level Indianapolis Center
09:03PM 40.0458 -83.6044 44° Northeast 184 212 6,900  Level Indianapolis Center
09:04PM 40.0650 -83.5814 43° Northeast 187 215 6,900 60 Level Indianapolis Center
09:04PM 40.0850 -83.5547 46° Northeast 187 215 7,000  Climbing Indianapolis Center
09:05PM 40.1031 -83.5331 43° Northeast 187 215 6,900  Descending Indianapolis Center
09:05PM 40.1219 -83.5075 46° Northeast 188 216 7,000 60 Climbing Indianapolis Center
09:06PM 40.1394 -83.4844 45° Northeast 186 214 7,000  Level Indianapolis Center
09:06PM 40.1567 -83.4625 44° Northeast 188 216 7,000 -120 Level Indianapolis Center
09:07PM 40.1783 -83.4361 43° Northeast 189 217 6,900 60 Descending Indianapolis Center
09:08PM 40.2050 -83.4003 46° Northeast 188 216 7,100 60 Climbing Indianapolis Center
09:08PM 40.2158 -83.3878 41° Northeast 188 216 7,000  Descending Indianapolis Center
09:08PM 40.2303 -83.3678 47° Northeast 186 214 7,100 -120 Climbing Indianapolis Center
09:09PM 40.2536 -83.3408 41° Northeast 186 214 6,900  Descending Indianapolis Center
09:09PM 40.2714 -83.3208 41° Northeast 187 215 7,100 60 Climbing Indianapolis Center
09:10PM 40.2992 -83.2869 43° Northeast 186 214 7,000 -60 Descending Indianapolis Center
09:11PM 40.3356 -83.2381 46° Northeast 185 213 7,000  Level Indianapolis Center
09:12PM 40.3725 -83.1897 45° Northeast 184 212 7,000  Level Indianapolis Center
09:13PM 40.4089 -83.1417 45° Northeast 184 212 7,000 -60 Level Indianapolis Center
09:14PM 40.4464 -83.0931 45° Northeast 187 215 6,900 -60 Descending Indianapolis Center
09:15PM 40.4844 -83.0478 42° Northeast 183 211 6,900  Level Indianapolis Center
09:16PM 40.5231 -83.0050 40° Northeast 184 212 7,000  Climbing Indianapolis Center
09:17PM 40.5592 -82.9553 46° Northeast 186 214 7,000 -60 Level Indianapolis Center
09:18PM 40.5958 -82.9083 44° Northeast 183 211 6,900 -180 Descending Indianapolis Center
09:19PM 40.6325 -82.8575 46° Northeast 187 215 6,700 -360 Descending Indianapolis Center
09:20PM 40.6742 -82.8056 43° Northeast 200 230 6,200 -540 Descending Indianapolis Center
09:21PM 40.7142 -82.7494 47° Northeast 206 237 5,700 -540 Descending Indianapolis Center
09:22PM 40.7500 -82.7017 45° Northeast 213 245 5,300 -300 Descending Cleveland Center
09:23PM 40.8033 -82.6350 43° Northeast 212 244 5,100 -120 Descending Cleveland Center
09:24PM 40.8375 -82.5867 47° Northeast 201 231 5,100 -60 Level Cleveland Center
09:25PM 40.8758 -82.5328 47° Northeast 201 231 5,000  Descending Cleveland Center
09:27PM 40.9272 -82.4656 45° Northeast 201 231 5,100  Climbing Cleveland Center
09:27PM 40.9611 -82.4225 44° Northeast 199 229 5,100 -60 Level Cleveland Center
09:28PM 40.9994 -82.3686 47° Northeast 204 235 5,000  Descending Cleveland Center
09:29PM 41.0422 -82.3119 45° Northeast 205 236 5,100  Climbing Cleveland Center
09:30PM 41.0825 -82.2608 44° Northeast 205 236 5,100  Level Cleveland Center
09:31PM 41.1228 -82.2094 44° Northeast 208 239 5,100  Level Cleveland Center
09:32PM 41.1547 -82.1633 47° Northeast 205 236 5,100 -60 Level Cleveland Center
09:33PM 41.1808 -82.0894 65° Northeast 197 227 5,000 -420 Descending Cleveland Center
09:34PM 41.1942 -82.0181 76° East 202 232 4,300 -660 Descending Cleveland Center
09:35PM 41.2056 -81.9464 78° East 196 226 3,700 -420 Descending Cleveland Center
09:36PM 41.2147 -81.8806 79° East 183 211 3,500 -240 Descending Cleveland Center
09:37PM 41.2217 -81.8172 82° East 174 200 3,300 -240 Descending Cleveland Center
09:38PM 41.2533 -81.7736 46° Northeast 207 238 3,100 -180 Descending Cleveland Center
09:39PM 41.3078 -81.7525 16° North 201 231 3,000 -60 Descending Cleveland Center
09:40PM 41.3622 -81.7367 12° North 197 227 3,000 -420 Level Cleveland Center
09:42PM 41.4228 -81.7047 22° Northeast 212 244 2,200 -660 Descending Cleveland Center
09:43PM 41.4711 -81.6778 23° Northeast 177 204 1,700 -480 Descending Cleveland Center
09:44PM 41.5172 -81.6564 19° North 136 157 1,200 -480 Descending Cleveland Center
09:46PM 41.5175 -81.6833 271° West  Level Estimated